Time;durP1;ratioP1;P1;durP2;ratioP2;P2;SDS_P1;SDS_P2;PMS_P1;PMS_P2;Temp;Humidity;BMP_temperature;BMP_pressure;BME280_temperature;BME280_humidity;BME280_pressure;Samples;Min_cycle;Max_cycle;Signal;HPM_P1;HPM_P2
2023/12/30 00:01:41;;;;;;;6.90;4.37;;;;;;;1.62;nan;-17258.19;4994483;28;20184;-62
2023/12/30 00:04:07;;;;;;;2.77;2.57;;;;;;;1.32;nan;-17567.44;4994525;28;20221;-64
2023/12/30 00:06:34;;;;;;;3.47;3.17;;;;;;;1.58;nan;-17257.56;4994786;28;20625;-64
2023/12/30 00:08:59;;;;;;;3.03;2.50;;;;;;;1.06;nan;-17248.38;4994529;28;20179;-64
2023/12/30 00:11:24;;;;;;;2.73;2.53;;;;;;;1.04;nan;-17562.34;4994364;28;20270;-64
2023/12/30 00:13:50;;;;;;;1.83;1.73;;;;;;;1.45;nan;-17884.25;4994493;28;20205;-65
2023/12/30 00:16:15;;;;;;;5.77;3.23;;;;;;;1.51;nan;-18199.88;4994147;28;20237;-67
2023/12/30 00:18:41;;;;;;;1.87;1.77;;;;;;;1.30;nan;-17881.63;4994264;28;20232;-65
2023/12/30 00:21:06;;;;;;;3.37;3.07;;;;;;;1.36;nan;-17568.19;4994463;28;20171;-62
2023/12/30 00:23:32;;;;;;;2.37;2.27;;;;;;;1.14;nan;-17564.19;4994441;28;20180;-64
2023/12/30 00:25:57;;;;;;;3.17;2.87;;;;;;;1.30;nan;-17567.19;4994087;28;20540;-62
2023/12/30 00:28:23;;;;;;;2.03;1.93;;;;;;;0.96;nan;-17560.91;4994092;28;20203;-65
2023/12/30 00:30:49;;;;;;;2.17;2.07;;;;;;;1.28;nan;-17252.28;5008838;28;20330;-65
2023/12/30 00:33:14;;;;;;;2.53;2.33;;;;;;;0.88;nan;-17245.28;4992813;28;20590;-66
2023/12/30 00:35:40;;;;;;;2.87;2.67;;;;;;;0.55;nan;-16925.41;4993942;28;20205;-65
2023/12/30 00:38:05;;;;;;;3.77;3.47;;;;;;;1.08;nan;-16934.34;4993866;28;20190;-63
2023/12/30 00:40:31;;;;;;;4.87;2.60;;;;;;;1.05;nan;-16933.81;4994135;28;20661;-63
2023/12/30 00:42:56;;;;;;;3.63;2.07;;;;;;;0.77;nan;-17243.41;4993673;28;20267;-64
2023/12/30 00:45:22;;;;;;;2.47;2.27;;;;;;;1.11;nan;-17249.25;4993818;28;20867;-64
2023/12/30 00:47:47;;;;;;;3.23;2.93;;;;;;;1.10;nan;-17249.09;4993458;28;20271;-63
2023/12/30 00:50:13;;;;;;;2.17;1.97;;;;;;;1.04;nan;-17248.03;4993820;28;20529;-65
2023/12/30 00:52:38;;;;;;;3.43;3.03;;;;;;;0.82;nan;-17244.22;4993817;28;20627;-65
2023/12/30 00:55:04;;;;;;;2.03;1.93;;;;;;;0.90;nan;-17245.63;4993473;28;20222;-63
2023/12/30 00:57:29;;;;;;;2.37;2.27;;;;;;;1.06;nan;-17248.38;4993495;28;20218;-65
2023/12/30 00:59:55;;;;;;;1.80;1.70;;;;;;;0.82;nan;-17244.22;4993432;28;20179;-65
2023/12/30 01:02:20;;;;;;;2.83;2.63;;;;;;;0.79;nan;-17243.69;4993702;28;20182;-65
2023/12/30 01:04:46;;;;;;;2.93;2.73;;;;;;;0.96;nan;-17246.69;4993332;28;20195;-65
2023/12/30 01:07:11;;;;;;;2.53;2.33;;;;;;;0.33;nan;-17235.63;4993348;28;20646;-66
2023/12/30 01:09:36;;;;;;;3.87;2.70;;;;;;;0.93;nan;-17246.06;4993531;28;20175;-65
2023/12/30 01:12:02;;;;;;;4.80;3.37;;;;;;;0.80;nan;-17243.84;4993500;28;20179;-64
2023/12/30 01:14:27;;;;;;;2.47;2.27;;;;;;;0.81;nan;-17244.03;4993319;28;20564;-61
2023/12/30 01:16:53;;;;;;;3.17;2.50;;;;;;;0.91;nan;-17245.81;4993312;28;20664;-64
2023/12/30 01:19:18;;;;;;;3.77;3.07;;;;;;;0.89;nan;-17245.44;4993532;28;20187;-65
2023/12/30 01:21:43;;;;;;;3.50;1.93;;;;;;;0.67;nan;-17555.69;4993540;28;20183;-63
2023/12/30 01:24:10;;;;;;;3.23;2.63;;;;;;;0.67;nan;-17869.91;4993152;28;20617;-62
2023/12/30 01:26:38;;;;;;;2.37;2.17;;;;;;;0.84;nan;-17873.00;4993130;28;20166;-67
2023/12/30 01:29:03;;;;;;;4.70;3.00;;;;;;;0.68;nan;-17870.09;4992756;28;20276;-64
2023/12/30 01:31:29;;;;;;;1.40;1.40;;;;;;;0.52;nan;-18181.09;4992936;28;20299;-63
2023/12/30 01:33:54;;;;;;;2.17;2.03;;;;;;;0.61;nan;-18182.84;4993557;28;20685;-63
2023/12/30 01:36:19;;;;;;;2.33;2.13;;;;;;;0.81;nan;-18186.69;4986616;28;20185;-62
2023/12/30 01:38:45;;;;;;;1.80;1.70;;;;;;;0.86;nan;-18187.66;4992972;28;20184;-65
2023/12/30 01:41:10;;;;;;;2.13;2.03;;;;;;;0.66;nan;-18497.75;4992931;28;20576;-65
2023/12/30 01:43:36;;;;;;;2.10;2.00;;;;;;;0.99;nan;-18504.19;4992497;28;20188;-66
2023/12/30 01:46:07;;;;;;;1.80;1.70;;;;;;;0.33;nan;-18491.41;4992236;28;20735;-65
2023/12/30 01:48:33;;;;;;;6.87;3.57;;;;;;;0.84;nan;-18501.31;4992864;28;20676;-64
2023/12/30 01:51:01;;;;;;;5.60;2.53;;;;;;;0.64;nan;-18497.34;4992661;28;20173;-66
2023/12/30 01:53:28;;;;;;;2.23;2.13;;;;;;;0.62;nan;-18183.03;4992527;28;20519;-67
2023/12/30 01:55:56;;;;;;;2.13;2.03;;;;;;;0.52;nan;-18181.00;4992388;28;20188;-65
2023/12/30 01:58:21;;;;;;;3.23;2.43;;;;;;;0.58;nan;-18182.16;4992511;28;20187;-63
2023/12/30 02:00:54;;;;;;;4.47;2.73;;;;;;;0.61;nan;-18182.84;4992341;28;20573;-63
2023/12/30 02:03:21;;;;;;;3.33;2.53;;;;;;;0.71;nan;-18184.75;4992651;28;20603;-64
2023/12/30 02:05:47;;;;;;;2.77;2.57;;;;;;;0.76;nan;-18499.72;4992309;28;20190;-64
2023/12/30 02:08:15;;;;;;;1.77;1.67;;;;;;;0.56;nan;-18181.78;4992293;28;20180;-66
2023/12/30 02:10:40;;;;;;;2.33;2.23;;;;;;;0.47;nan;-18180.13;4992210;28;20350;-63
2023/12/30 02:13:06;;;;;;;2.73;2.53;;;;;;;0.55;nan;-17867.66;4991858;28;20187;-64
2023/12/30 02:15:31;;;;;;;2.83;2.63;;;;;;;0.57;nan;-18182.06;4991311;28;20202;-64
2023/12/30 02:17:56;;;;;;;2.37;2.10;;;;;;;0.60;nan;-18182.53;4992154;28;20187;-66
2023/12/30 02:20:23;;;;;;;2.70;2.47;;;;;;;0.55;nan;-18181.59;4992093;28;20314;-61
2023/12/30 02:22:48;;;;;;;1.83;1.73;;;;;;;0.60;nan;-18496.66;4992100;28;20639;-61
2023/12/30 02:25:15;;;;;;;2.60;2.20;;;;;;;0.34;nan;-18491.50;4991958;28;20242;-67
2023/12/30 02:27:44;;;;;;;1.97;1.87;;;;;;;0.35;nan;-18805.56;4991535;28;20181;-65
2023/12/30 02:30:10;;;;;;;1.70;1.37;;;;;;;0.43;nan;-18493.28;4992150;28;20237;-65
2023/12/30 02:32:36;;;;;;;3.97;3.60;;;;;;;0.42;nan;-18493.19;4991740;28;20721;-65
2023/12/30 02:35:01;;;;;;;2.53;2.13;;;;;;;0.68;nan;-18184.19;4991871;28;20210;-63
2023/12/30 02:37:27;;;;;;;2.97;2.70;;;;;;;0.61;nan;-17868.69;4991818;28;20184;-66
2023/12/30 02:39:52;;;;;;;2.43;2.23;;;;;;;0.23;nan;-17861.75;4991815;28;20200;-66
2023/12/30 02:42:18;;;;;;;2.77;2.57;;;;;;;0.60;nan;-17868.50;4991920;28;20195;-65
2023/12/30 02:44:43;;;;;;;2.70;2.47;;;;;;;0.52;nan;-17867.00;4992015;28;20177;-66
2023/12/30 02:47:08;;;;;;;2.67;2.47;;;;;;;0.37;nan;-17550.31;4991656;28;20658;-64
2023/12/30 02:49:34;;;;;;;3.57;3.27;;;;;;;0.30;nan;-17235.19;4992051;28;20210;-63
2023/12/30 02:52:00;;;;;;;3.23;2.93;;;;;;;0.20;nan;-17233.41;4991990;28;20188;-65
2023/12/30 02:54:26;;;;;;;3.70;2.43;;;;;;;0.23;nan;-17233.84;4991630;28;20667;-65
2023/12/30 02:56:51;;;;;;;3.57;2.07;;;;;;;0.03;nan;-17857.91;4991548;28;20185;-64
2023/12/30 02:59:17;;;;;;;3.20;1.87;;;;;;;0.48;nan;-18180.31;4991656;28;20183;-65
2023/12/30 03:01:42;;;;;;;3.27;3.07;;;;;;;0.24;nan;-18175.69;4991415;28;20185;-65
2023/12/30 03:04:08;;;;;;;2.03;1.93;;;;;;;0.48;nan;-17866.34;4991362;28;20254;-65
2023/12/30 03:06:33;;;;;;;3.17;2.50;;;;;;;0.49;nan;-17866.53;4991418;28;20182;-66
2023/12/30 03:08:59;;;;;;;3.80;2.17;;;;;;;0.41;nan;-17237.03;4991673;28;20224;-61
2023/12/30 03:11:25;;;;;;;2.93;2.73;;;;;;;0.41;nan;-17237.03;4991148;28;20263;-65
2023/12/30 03:13:51;;;;;;;2.83;2.53;;;;;;;0.39;nan;-17236.69;4991919;28;20206;-65
2023/12/30 03:16:18;;;;;;;3.30;2.63;;;;;;;-0.02;nan;-16915.75;4991564;28;20180;-65
2023/12/30 03:18:44;;;;;;;3.90;2.07;;;;;;;0.28;nan;-16920.75;4991597;28;20267;-65
2023/12/30 03:21:12;;;;;;;5.10;2.77;;;;;;;0.23;nan;-17233.84;4991339;28;20242;-63
2023/12/30 03:23:38;;;;;;;3.30;2.90;;;;;;;0.34;nan;-17235.78;4991435;28;20188;-65
2023/12/30 03:26:05;;;;;;;2.40;2.20;;;;;;;0.25;nan;-17234.28;4990951;28;20178;-63
2023/12/30 03:28:31;;;;;;;2.73;2.50;;;;;;;0.32;nan;-17235.53;4994747;28;20180;-63
2023/12/30 03:30:56;;;;;;;2.90;2.70;;;;;;;0.18;nan;-16919.03;4995149;28;20649;-64
2023/12/30 03:33:24;;;;;;;5.30;2.40;;;;;;;-0.01;nan;-17229.69;4988759;28;20188;-65
2023/12/30 03:35:49;;;;;;;2.77;2.57;;;;;;;0.27;nan;-17234.66;4994975;28;20543;-65
2023/12/30 03:38:15;;;;;;;6.07;3.03;;;;;;;0.07;nan;-17231.00;4994923;28;20195;-65
2023/12/30 03:40:40;;;;;;;2.10;1.90;;;;;;;-0.02;nan;-17229.50;4994766;28;20234;-64
2023/12/30 03:43:05;;;;;;;3.83;3.53;;;;;;;-0.02;nan;-17543.38;4995322;28;20181;-65
2023/12/30 03:45:31;;;;;;;2.40;2.23;;;;;;;0.10;nan;-17231.53;4994695;28;20637;-63
2023/12/30 03:47:56;;;;;;;3.20;2.20;;;;;;;0.22;nan;-17233.66;4988435;28;20327;-65
2023/12/30 03:50:22;;;;;;;3.00;2.40;;;;;;;0.24;nan;-17234.03;4989671;28;20192;-66
2023/12/30 03:52:48;;;;;;;2.70;2.47;;;;;;;0.27;nan;-17548.50;4987819;28;20621;-62
2023/12/30 03:55:14;;;;;;;2.60;2.33;;;;;;;0.12;nan;-17859.69;4984663;28;20208;-65
2023/12/30 03:57:39;;;;;;;3.83;2.70;;;;;;;0.21;nan;-17861.28;4992633;28;20594;-65
2023/12/30 04:00:05;;;;;;;2.93;2.70;;;;;;;0.38;nan;-17864.56;4994531;28;20223;-64
2023/12/30 04:02:31;;;;;;;3.33;2.50;;;;;;;0.19;nan;-17860.91;4987445;28;20504;-63
2023/12/30 04:04:56;;;;;;;4.37;3.37;;;;;;;0.33;nan;-17549.69;4981717;28;20191;-65
2023/12/30 04:07:21;;;;;;;2.23;2.07;;;;;;;0.20;nan;-17233.31;4979683;28;20185;-65
2023/12/30 04:09:47;;;;;;;2.87;2.67;;;;;;;0.38;nan;-17236.50;4993059;28;20200;-63
2023/12/30 04:12:12;;;;;;;4.07;3.20;;;;;;;0.05;nan;-16916.88;4984504;28;20188;-65
2023/12/30 04:14:38;;;;;;;7.53;3.70;;;;;;;0.03;nan;-16916.44;4980271;28;20216;-66
2023/12/30 04:17:03;;;;;;;2.07;1.90;;;;;;;0.28;nan;-16920.84;4980927;28;20184;-66
2023/12/30 04:19:29;;;;;;;4.20;2.77;;;;;;;0.09;nan;-16603.59;4985920;28;20180;-64
2023/12/30 04:21:54;;;;;;;2.90;2.70;;;;;;;-0.20;nan;-15971.28;4981767;28;20287;-64
2023/12/30 04:24:21;;;;;;;2.43;2.17;;;;;;;-0.18;nan;-16599.16;4980906;28;20699;-64
2023/12/30 04:26:47;;;;;;;3.50;2.27;;;;;;;-0.19;nan;-16599.06;4987830;28;20185;-65
2023/12/30 04:29:13;;;;;;;2.77;2.57;;;;;;;-0.39;nan;-16595.66;4983199;28;20189;-63
2023/12/30 04:31:38;;;;;;;3.43;2.43;;;;;;;-0.17;nan;-17226.94;4982419;28;20243;-63
2023/12/30 04:34:04;;;;;;;3.80;3.00;;;;;;;-0.22;nan;-17225.94;4981331;28;20311;-61
2023/12/30 04:36:30;;;;;;;1.30;1.30;;;;;;;-0.22;nan;-17225.94;4994112;28;20193;-65
2023/12/30 04:38:55;;;;;;;2.13;1.93;;;;;;;-0.13;nan;-17227.53;4986148;28;20247;-65
2023/12/30 04:41:21;;;;;;;3.13;2.47;;;;;;;-0.36;nan;-17223.47;4989370;28;20177;-64
2023/12/30 04:43:46;;;;;;;4.83;2.93;;;;;;;-0.41;nan;-17222.66;4981156;28;20191;-63
2023/12/30 04:46:12;;;;;;;4.23;2.53;;;;;;;-0.02;nan;-17229.50;4988400;28;20192;-64
2023/12/30 04:48:38;;;;;;;2.50;2.30;;;;;;;-0.07;nan;-17228.69;4988145;28;20196;-65
2023/12/30 04:51:03;;;;;;;1.70;1.60;;;;;;;-0.18;nan;-17226.75;4985403;28;20225;-64
2023/12/30 04:53:29;;;;;;;1.67;1.57;;;;;;;-0.32;nan;-17224.25;4989461;28;20294;-62
2023/12/30 04:55:56;;;;;;;2.10;2.00;;;;;;;-0.35;nan;-17223.72;4987818;28;20184;-66
2023/12/30 04:58:21;;;;;;;4.73;2.60;;;;;;;-0.15;nan;-17227.28;5001471;28;20276;-65
2023/12/30 05:00:47;;;;;;;2.57;2.37;;;;;;;-0.10;nan;-17228.06;4984178;28;20325;-64
2023/12/30 05:03:14;;;;;;;2.87;2.60;;;;;;;-0.27;nan;-17538.72;4981597;28;20185;-65
2023/12/30 05:05:39;;;;;;;2.80;2.57;;;;;;;-0.06;nan;-17542.66;4981606;28;20165;-64
2023/12/30 05:08:07;;;;;;;1.60;1.50;;;;;;;-0.25;nan;-17852.72;4983958;28;20177;-64
2023/12/30 05:10:33;;;;;;;1.67;1.57;;;;;;;-0.23;nan;-17853.09;4987451;28;20188;-66
2023/12/30 05:12:59;;;;;;;1.83;1.73;;;;;;;-0.07;nan;-17856.09;4981757;28;20185;-65
2023/12/30 05:15:25;;;;;;;4.77;2.47;;;;;;;-0.07;nan;-17856.19;4984129;28;20248;-65
2023/12/30 05:17:50;;;;;;;2.63;2.43;;;;;;;0.11;nan;-18173.28;4986407;28;20276;-63
2023/12/30 05:20:17;;;;;;;2.00;1.60;;;;;;;0.17;nan;-18802.00;4984616;28;20184;-66
2023/12/30 05:22:43;;;;;;;1.97;1.70;;;;;;;0.28;nan;-18804.25;4984719;28;20181;-66
2023/12/30 05:25:09;;;;;;;2.77;2.17;;;;;;;0.23;nan;-18803.22;4998751;28;20278;-64
2023/12/30 05:27:35;;;;;;;1.77;1.67;;;;;;;0.32;nan;-18805.06;4981594;28;20196;-67
2023/12/30 05:30:01;;;;;;;2.27;2.10;;;;;;;0.03;nan;-18799.06;4979667;28;20185;-64
2023/12/30 05:32:26;;;;;;;1.20;1.20;;;;;;;0.14;nan;-19115.00;4987932;28;20669;-68
2023/12/30 05:34:52;;;;;;;2.23;2.03;;;;;;;0.37;nan;-19119.81;4984310;28;20733;-64
2023/12/30 05:37:17;;;;;;;1.87;1.77;;;;;;;0.29;nan;-19118.25;4990974;28;20185;-65
2023/12/30 05:39:44;;;;;;;1.43;1.37;;;;;;;0.39;nan;-19120.31;4980353;28;20200;-63
2023/12/30 05:42:09;;;;;;;3.40;2.20;;;;;;;0.30;nan;-19118.34;4982599;28;20194;-68
2023/12/30 05:44:35;;;;;;;1.80;1.70;;;;;;;0.47;nan;-19121.88;4992427;28;20262;-65
2023/12/30 05:47:02;;;;;;;5.30;2.83;;;;;;;0.22;nan;-19430.41;4987406;28;20189;-66
2023/12/30 05:49:27;;;;;;;1.77;1.67;;;;;;;0.56;nan;-19437.66;4988008;28;20208;-65
2023/12/30 05:51:53;;;;;;;1.97;1.87;;;;;;;0.45;nan;-19435.31;4985305;28;20217;-66
2023/12/30 05:54:19;;;;;;;2.53;2.43;;;;;;;0.71;nan;-19440.88;4982415;28;20286;-65
2023/12/30 05:56:44;;;;;;;2.43;2.23;;;;;;;0.75;nan;-19441.72;4987233;28;20196;-63
2023/12/30 05:59:09;;;;;;;4.80;2.40;;;;;;;0.76;nan;-19441.94;4986425;28;20181;-67
2023/12/30 06:01:44;;;;;;;2.97;2.73;;;;;;;0.83;nan;-19443.34;4986660;28;20189;-65
2023/12/30 06:04:09;;;;;;;2.50;2.30;;;;;;;0.85;nan;-19757.91;4984840;28;20185;-64
2023/12/30 06:06:35;;;;;;;1.57;1.47;;;;;;;0.85;nan;-19757.91;4985812;28;20272;-66
2023/12/30 06:09:01;;;;;;;3.60;2.80;;;;;;;1.12;nan;-19763.56;4988032;28;20221;-64
2023/12/30 06:11:26;;;;;;;1.83;1.73;;;;;;;1.09;nan;-20077.03;4982970;28;20216;-63
2023/12/30 06:13:52;;;;;;;1.90;1.80;;;;;;;1.11;nan;-19763.34;4994149;28;20251;-66
2023/12/30 06:16:17;;;;;;;1.97;1.87;;;;;;;1.19;nan;-19765.09;4986250;28;20268;-65
2023/12/30 06:18:42;;;;;;;3.47;2.30;;;;;;;1.35;nan;-19454.31;4980053;28;20188;-65
2023/12/30 06:21:08;;;;;;;2.10;2.00;;;;;;;1.33;nan;-18825.38;4989887;28;20273;-63
2023/12/30 06:23:33;;;;;;;2.30;1.77;;;;;;;1.68;nan;-18832.34;5002393;28;20199;-61
2023/12/30 06:26:02;;;;;;;1.77;1.67;;;;;;;1.71;nan;-19147.50;4983900;28;20188;-66
2023/12/30 06:28:28;;;;;;;2.37;2.27;;;;;;;1.88;nan;-19150.81;4976331;28;20284;-65
2023/12/30 06:30:53;;;;;;;3.10;2.30;;;;;;;1.90;nan;-19151.34;4979090;28;20291;-64
2023/12/30 06:33:21;;;;;;;1.87;1.77;;;;;;;2.05;nan;-19154.34;4982410;28;20212;-68
2023/12/30 06:35:46;;;;;;;2.97;1.97;;;;;;;1.84;nan;-18835.50;4983137;28;20232;-66
2023/12/30 06:38:13;;;;;;;1.83;1.73;;;;;;;2.17;nan;-17267.81;4985692;28;20608;-65
2023/12/30 06:40:41;;;;;;;3.73;2.63;;;;;;;2.22;nan;-16638.81;4984841;28;20184;-66
2023/12/30 06:43:09;;;;;;;2.20;2.07;;;;;;;2.32;nan;-16640.38;4986300;28;20323;-63
2023/12/30 06:45:35;;;;;;;2.70;2.37;;;;;;;2.18;nan;-16008.00;4991800;28;20192;-65
2023/12/30 06:48:00;;;;;;;2.40;1.97;;;;;;;2.23;nan;-16008.78;4979714;28;20195;-66
2023/12/30 06:50:26;;;;;;;1.90;1.80;;;;;;;2.49;nan;-15066.97;4981650;28;20340;-66
2023/12/30 06:52:54;;;;;;;2.57;2.37;;;;;;;2.21;nan;-15063.13;4976910;28;20181;-64
2023/12/30 06:55:20;;;;;;;2.73;2.10;;;;;;;2.66;nan;-15384.78;4980388;28;20684;-64
2023/12/30 06:57:45;;;;;;;2.27;2.17;;;;;;;2.51;nan;-14751.97;4976849;28;20279;-64
2023/12/30 07:00:11;;;;;;;3.50;2.73;;;;;;;2.70;nan;-14438.94;4986441;28;20185;-64
2023/12/30 07:02:37;;;;;;;3.37;2.10;;;;;;;2.74;nan;-12545.91;4994974;28;20195;-66
2023/12/30 07:05:02;;;;;;;2.17;1.97;;;;;;;2.84;nan;-10967.84;4988249;28;20181;-63
2023/12/30 07:07:28;;;;;;;2.20;2.00;;;;;;;3.05;nan;-11285.34;4991772;28;20269;-66
2023/12/30 07:09:53;;;;;;;5.47;3.00;;;;;;;3.40;nan;-10339.44;4990667;28;20226;-65
2023/12/30 07:12:19;;;;;;;2.63;2.43;;;;;;;3.25;nan;-9389.91;4993733;28;20180;-64
2023/12/30 07:14:44;;;;;;;1.70;1.60;;;;;;;3.30;nan;-10022.63;4985382;28;20212;-64
2023/12/30 07:17:09;;;;;;;4.27;2.33;;;;;;;3.03;nan;-10021.13;4990352;28;20189;-64
2023/12/30 07:19:35;;;;;;;2.73;2.53;;;;;;;3.22;nan;-9705.97;4993790;28;20271;-64
2023/12/30 07:22:00;;;;;;;2.90;2.50;;;;;;;3.59;nan;-10340.53;4991610;28;21582;-67
2023/12/30 07:24:26;;;;;;;2.40;2.20;;;;;;;3.73;nan;-7809.13;4997745;28;20563;-62
2023/12/30 07:26:52;;;;;;;2.50;2.30;;;;;;;3.73;nan;-6859.03;4991516;28;20195;-66
2023/12/30 07:29:17;;;;;;;2.43;2.23;;;;;;;3.87;nan;-7175.91;4997675;28;20235;-64
2023/12/30 07:31:43;;;;;;;2.37;1.97;;;;;;;4.04;nan;-6225.25;4989103;28;20251;-64
2023/12/30 07:34:08;;;;;;;1.60;1.50;;;;;;;4.24;nan;-5590.91;4983768;28;20210;-63
2023/12/30 07:36:34;;;;;;;4.23;2.53;;;;;;;4.30;nan;-5273.59;4982885;28;20180;-65
2023/12/30 07:38:59;;;;;;;1.50;1.40;;;;;;;4.23;nan;-5908.03;4997144;28;20645;-66
2023/12/30 07:41:25;;;;;;;2.30;2.10;;;;;;;4.40;nan;-6542.13;4993996;28;20179;-65
2023/12/30 07:43:51;;;;;;;1.83;1.73;;;;;;;4.59;nan;-6859.28;4983841;28;20236;-65
2023/12/30 07:46:16;;;;;;;2.87;2.43;;;;;;;4.67;nan;-6542.06;5004025;28;20176;-64
2023/12/30 07:48:43;;;;;;;2.10;1.73;;;;;;;4.76;nan;-6859.34;5008739;28;20223;-65
2023/12/30 07:51:08;;;;;;;4.23;2.60;;;;;;;4.88;nan;-7176.72;4990783;28;20232;-64
2023/12/30 07:53:34;;;;;;;2.30;2.13;;;;;;;4.77;nan;-7493.88;4987276;28;20275;-63
2023/12/30 07:55:59;;;;;;;2.63;2.43;;;;;;;4.86;nan;-7811.25;4995779;28;20246;-63
2023/12/30 07:58:25;;;;;;;1.77;1.67;;;;;;;4.98;nan;-7811.44;4989810;28;20727;-65
2023/12/30 08:00:50;;;;;;;1.93;1.83;;;;;;;5.15;nan;-7494.34;4990674;28;20608;-64
2023/12/30 08:03:16;;;;;;;2.13;2.03;;;;;;;5.33;nan;-7494.56;4984244;28;20181;-66
2023/12/30 08:05:41;;;;;;;3.97;2.67;;;;;;;5.11;nan;-8446.38;4987763;28;20192;-63
2023/12/30 08:08:08;;;;;;;2.00;1.90;;;;;;;5.53;nan;-8765.06;4993129;28;20188;-65
2023/12/30 08:10:34;;;;;;;2.90;2.10;;;;;;;5.41;nan;-9082.09;4990536;28;20200;-66
2023/12/30 08:13:00;;;;;;;2.13;1.97;;;;;;;5.46;nan;-7177.16;4982499;28;20602;-63
2023/12/30 08:15:25;;;;;;;3.03;2.83;;;;;;;5.85;nan;-6541.72;4980943;28;20223;-67
2023/12/30 08:17:51;;;;;;;1.77;1.67;;;;;;;5.76;nan;-5270.16;4999214;28;20243;-63
2023/12/30 08:20:16;;;;;;;2.53;2.33;;;;;;;5.78;nan;-6859.59;4989372;28;20648;-65
2023/12/30 08:22:42;;;;;;;2.53;2.30;;;;;;;5.50;nan;-8764.94;4988305;28;20180;-64
2023/12/30 08:25:08;;;;;;;2.23;2.03;;;;;;;5.78;nan;-7812.88;4993757;28;20185;-63
2023/12/30 08:27:34;;;;;;;2.07;1.87;;;;;;;5.93;nan;-6223.78;4989287;28;20608;-65
2023/12/30 08:30:00;;;;;;;2.17;1.97;;;;;;;6.27;nan;-3677.47;4992387;28;20189;-65
2023/12/30 08:32:25;;;;;;;2.90;1.93;;;;;;;6.48;nan;-2720.81;4990409;28;20279;-66
2023/12/30 08:34:51;;;;;;;2.13;1.93;;;;;;;6.41;nan;-1765.50;4985014;28;20279;-66
2023/12/30 08:37:17;;;;;;;1.80;1.70;;;;;;;6.73;nan;-168.50;4986005;28;20237;-64
2023/12/30 08:39:42;;;;;;;2.13;1.83;;;;;;;6.59;nan;3978.19;4978791;28;20272;-66
2023/12/30 08:42:09;;;;;;;2.70;2.23;;;;;;;6.65;nan;3979.25;4980602;28;20177;-65
2023/12/30 08:44:40;;;;;;;1.60;1.50;;;;;;;6.82;nan;3982.19;4983314;28;20186;-66
2023/12/30 08:47:05;;;;;;;1.77;1.67;;;;;;;7.15;nan;8145.00;5006060;28;20185;-64
2023/12/30 08:49:31;;;;;;;3.57;2.77;;;;;;;7.06;nan;9423.03;4983458;28;20678;-66
2023/12/30 08:51:57;;;;;;;2.33;2.20;;;;;;;7.10;nan;12306.13;4980488;28;20619;-64
2023/12/30 08:54:23;;;;;;;3.47;1.77;;;;;;;7.25;nan;12631.00;4983001;28;20200;-66
2023/12/30 08:56:50;;;;;;;1.97;1.83;;;;;;;7.34;nan;13275.16;4986735;28;20645;-66
2023/12/30 08:59:16;;;;;;;2.90;2.43;;;;;;;7.42;nan;14560.56;4981522;28;20185;-65
2023/12/30 09:01:41;;;;;;;1.63;1.53;;;;;;;7.24;nan;12951.31;4978754;28;20271;-66
2023/12/30 09:04:07;;;;;;;2.10;2.00;;;;;;;7.46;nan;13278.97;4985032;28;20214;-65
2023/12/30 09:06:32;;;;;;;3.00;2.47;;;;;;;7.55;nan;12320.03;4984996;28;20672;-65
2023/12/30 09:08:57;;;;;;;2.33;1.60;;;;;;;7.77;nan;13930.94;4978460;28;20247;-64
2023/12/30 09:11:23;;;;;;;4.17;2.37;;;;;;;7.78;nan;16499.31;4995347;28;20611;-64
2023/12/30 09:13:51;;;;;;;1.87;1.77;;;;;;;8.10;nan;23587.19;4978488;28;20664;-65
2023/12/30 09:16:17;;;;;;;2.90;1.83;;;;;;;7.99;nan;26158.25;4987050;28;20187;-64
2023/12/30 09:18:42;;;;;;;2.00;1.90;;;;;;;8.15;nan;27133.91;4982109;28;20169;-66
2023/12/30 09:21:08;;;;;;;2.67;1.92;;;;;;;8.35;nan;31985.19;4979604;28;20231;-66
2023/12/30 09:23:34;;;;;;;2.70;2.43;;;;;;;8.53;nan;36845.56;4978712;28;20208;-67
2023/12/30 09:26:00;;;;;;;4.30;2.43;;;;;;;8.53;nan;42113.53;4978075;28;20228;-64
2023/12/30 09:28:25;;;;;;;4.07;2.97;;;;;;;8.40;nan;46317.47;4987717;28;20212;-65
2023/12/30 09:30:51;;;;;;;1.90;1.80;;;;;;;8.68;nan;46686.53;4984244;28;20286;-66
2023/12/30 09:33:16;;;;;;;4.10;3.05;;;;;;;8.92;nan;48701.53;4986776;28;20184;-65
2023/12/30 09:35:42;;;;;;;2.10;1.95;;;;;;;9.03;nan;53248.00;4991316;28;20208;-65
2023/12/30 09:38:07;;;;;;;2.00;1.80;;;;;;;9.13;nan;54485.53;4991178;28;20189;-66
2023/12/30 09:40:33;;;;;;;1.92;1.77;;;;;;;9.14;nan;54802.41;4979212;28;20220;-65
2023/12/30 09:43:04;;;;;;;1.80;1.70;;;;;;;9.38;nan;54546.13;4977752;28;20189;-65
2023/12/30 09:45:34;;;;;;;2.08;1.73;;;;;;;9.29;nan;54815.22;4987077;28;20181;-64
2023/12/30 09:48:02;;;;;;;1.95;1.85;;;;;;;9.46;nan;55368.59;4984686;28;20189;-64
2023/12/30 09:50:29;;;;;;;2.80;2.45;;;;;;;9.76;nan;55853.41;4983494;28;20180;-64
2023/12/30 09:52:54;;;;;;;6.93;2.22;;;;;;;9.69;nan;55568.06;4998143;28;20655;-65
2023/12/30 09:55:20;;;;;;;2.53;1.58;;;;;;;9.72;nan;56108.97;4979437;28;20288;-65
2023/12/30 09:57:45;;;;;;;2.10;1.88;;;;;;;10.06;nan;56669.00;4977042;28;20565;-63
2023/12/30 10:00:15;;;;;;;1.50;1.40;;;;;;;9.90;nan;57299.31;4978824;28;20241;-64
2023/12/30 10:02:42;;;;;;;1.83;1.73;;;;;;;10.30;nan;57530.16;4977931;28;20209;-65
2023/12/30 10:05:08;;;;;;;2.13;1.88;;;;;;;10.33;nan;57382.91;4978324;28;20673;-65
2023/12/30 10:07:34;;;;;;;2.20;2.05;;;;;;;10.33;nan;57362.50;4978509;28;20581;-63
2023/12/30 10:10:00;;;;;;;3.35;1.67;;;;;;;10.29;nan;57809.06;4977162;28;20269;-65
2023/12/30 10:12:25;;;;;;;3.00;2.50;;;;;;;10.49;nan;57861.75;4979129;28;20275;-65
2023/12/30 10:14:51;;;;;;;2.65;2.45;;;;;;;10.61;nan;58096.09;4982596;28;20196;-65
2023/12/30 10:17:18;;;;;;;1.40;1.30;;;;;;;10.72;nan;58283.56;4991009;28;20188;-64
2023/12/30 10:19:44;;;;;;;1.83;1.73;;;;;;;10.58;nan;58471.09;4991933;28;20177;-66
2023/12/30 10:22:13;;;;;;;3.17;2.05;;;;;;;10.87;nan;58593.38;4991933;28;20628;-65
2023/12/30 10:24:38;;;;;;;2.53;2.25;;;;;;;10.86;nan;58717.44;4991945;28;20208;-64
2023/12/30 10:27:04;;;;;;;1.63;1.52;;;;;;;10.91;nan;58794.91;4992378;28;20275;-65
2023/12/30 10:29:32;;;;;;;2.38;2.05;;;;;;;11.10;nan;58947.91;4991953;28;20563;-63
2023/12/30 10:32:00;;;;;;;1.48;1.38;;;;;;;11.25;nan;59030.22;4991967;28;20579;-66
2023/12/30 10:34:26;;;;;;;2.38;1.75;;;;;;;11.45;nan;59169.69;4991791;28;20191;-65
2023/12/30 10:36:55;;;;;;;1.83;1.73;;;;;;;11.34;nan;59153.06;4990962;28;20177;-64
2023/12/30 10:39:25;;;;;;;2.03;1.70;;;;;;;11.33;nan;59182.63;4991555;28;20649;-62
2023/12/30 10:41:50;;;;;;;1.50;1.40;;;;;;;11.27;nan;59306.38;4991874;28;20310;-64
2023/12/30 10:44:16;;;;;;;1.95;1.85;;;;;;;11.36;nan;59308.63;4991847;28;20575;-61
2023/12/30 10:46:47;;;;;;;2.65;2.40;;;;;;;11.40;nan;59471.50;4992425;28;20179;-62
2023/12/30 10:49:16;;;;;;;4.32;2.50;;;;;;;11.46;nan;59480.09;4992523;28;20307;-64
2023/12/30 10:51:42;;;;;;;2.90;2.63;;;;;;;11.38;nan;59441.16;4991542;28;20615;-65
2023/12/30 10:54:12;;;;;;;2.90;2.50;;;;;;;11.67;nan;59382.50;4991581;28;20236;-65
2023/12/30 10:56:57;;;;;;;2.95;1.60;;;;;;;11.78;nan;59909.31;4991483;28;20706;-64
2023/12/30 10:59:27;;;;;;;2.08;1.98;;;;;;;11.80;nan;60110.50;4991626;28;20172;-63
2023/12/30 11:01:53;;;;;;;1.83;1.73;;;;;;;12.11;nan;60367.16;4991421;28;20597;-65
2023/12/30 11:04:19;;;;;;;2.58;2.00;;;;;;;12.01;nan;60264.41;4991401;28;20173;-65
2023/12/30 11:06:49;;;;;;;1.77;1.67;;;;;;;12.07;nan;60347.34;4991944;28;20168;-64
2023/12/30 11:09:15;;;;;;;2.28;2.15;;;;;;;11.85;nan;60313.09;4992096;28;20177;-65
2023/12/30 11:11:52;;;;;;;1.92;1.83;;;;;;;12.16;nan;60283.69;4991506;28;20547;-66
2023/12/30 11:14:20;;;;;;;1.60;1.50;;;;;;;12.02;nan;60339.19;4991449;28;20224;-64
2023/12/30 11:16:46;;;;;;;2.22;1.92;;;;;;;12.36;nan;60395.06;4991026;28;20636;-62
2023/12/30 11:19:28;;;;;;;1.30;1.20;;;;;;;12.38;nan;60418.34;4991355;28;20181;-64
2023/12/30 11:21:55;;;;;;;1.83;1.58;;;;;;;12.49;nan;60483.88;4991225;28;20635;-65
2023/12/30 11:24:22;;;;;;;2.83;1.90;;;;;;;12.58;nan;60504.19;4991296;28;20176;-65
2023/12/30 11:26:48;;;;;;;2.90;2.22;;;;;;;12.11;nan;60415.78;4991232;28;20619;-65
2023/12/30 11:29:17;;;;;;;3.35;1.60;;;;;;;12.08;nan;60530.19;4991384;28;20169;-65
2023/12/30 11:31:47;;;;;;;1.70;1.60;;;;;;;12.07;nan;60655.03;4991094;28;20227;-64
2023/12/30 11:34:15;;;;;;;2.05;1.85;;;;;;;12.40;nan;60735.59;4991308;28;20217;-64
2023/12/30 11:36:41;;;;;;;2.55;1.73;;;;;;;12.58;nan;60772.63;4991205;28;20610;-64
2023/12/30 11:39:07;;;;;;;4.05;2.33;;;;;;;12.49;nan;60831.69;4991841;28;20168;-65
2023/12/30 11:41:34;;;;;;;3.67;2.38;;;;;;;12.73;nan;60835.59;4991344;28;20556;-64
2023/12/30 11:44:03;;;;;;;2.80;1.60;;;;;;;12.58;nan;60870.53;4991135;28;20177;-65
2023/12/30 11:46:29;;;;;;;2.00;1.90;;;;;;;12.84;nan;60902.38;4991367;28;20331;-63